createdAt,value
2023-05-08T00:02:05.580Z,64.91
2023-05-08T00:07:07.316Z,65.11
2023-05-08T00:12:09.103Z,65.15
2023-05-08T00:17:10.885Z,64.98
2023-05-08T00:22:12.773Z,64.58
2023-05-08T00:27:14.681Z,64.17
2023-05-08T00:32:17.343Z,64.48
2023-05-08T00:37:19.220Z,64.09
2023-05-08T00:42:21.112Z,63.54
2023-05-08T00:47:23.543Z,63.75
2023-05-08T00:52:27.861Z,64.90
2023-05-08T00:57:32.462Z,65.26
2023-05-08T01:02:36.111Z,64.61
2023-05-08T01:07:39.091Z,64.54
2023-05-08T01:13:06.498Z,65.08
2023-05-08T01:18:31.251Z,65.27
2023-05-08T01:23:49.798Z,64.07
2023-05-08T01:29:23.556Z,64.01
2023-05-08T01:34:31.252Z,64.98
2023-05-08T01:40:03.352Z,64.42
2023-05-08T01:45:16.394Z,64.47
2023-05-08T01:50:25.828Z,64.58
2023-05-08T01:55:34.684Z,64.74
2023-05-08T02:00:39.608Z,64.98
2023-05-08T02:05:42.981Z,64.70
2023-05-08T02:10:48.438Z,64.64
2023-05-08T02:15:52.732Z,64.61
2023-05-08T02:20:57.743Z,64.66
2023-05-08T02:26:01.618Z,64.64
2023-05-08T02:31:05.660Z,64.32
2023-05-08T02:36:10.907Z,64.66
2023-05-08T02:41:14.347Z,64.09
2023-05-08T02:46:21.138Z,64.24
2023-05-08T02:51:37.887Z,64.00
2023-05-08T02:56:47.520Z,64.87
2023-05-08T03:01:52.113Z,64.11
2023-05-08T03:06:56.900Z,64.41
2023-05-08T03:12:06.520Z,64.77
2023-05-08T03:17:12.792Z,64.63
2023-05-08T03:22:16.463Z,64.32
2023-05-08T03:27:20.488Z,63.96
2023-05-08T03:32:26.136Z,63.40
2023-05-08T03:37:28.832Z,63.08
2023-05-08T03:42:31.470Z,64.06
2023-05-08T03:47:37.160Z,63.48
2023-05-08T03:52:39.295Z,63.39
2023-05-08T03:57:50.477Z,64.11
2023-05-08T04:03:11.686Z,64.05
2023-05-08T04:08:21.534Z,64.67
2023-05-08T04:13:28.739Z,64.51
2023-05-08T04:18:32.613Z,64.43
2023-05-08T04:23:38.861Z,64.60
2023-05-08T04:28:40.897Z,64.57
2023-05-08T04:33:46.752Z,64.00
2023-05-08T04:38:48.864Z,64.46
2023-05-08T04:43:50.734Z,64.01
2023-05-08T04:48:53.447Z,64.06
2023-05-08T04:53:55.363Z,64.27
2023-05-08T04:58:57.805Z,64.41
2023-05-08T05:03:59.730Z,63.88
2023-05-08T05:09:01.729Z,63.72
2023-05-08T05:14:03.628Z,63.27
2023-05-08T05:19:05.668Z,63.11
2023-05-08T05:24:08.084Z,62.69
2023-05-08T05:29:11.375Z,63.56
2023-05-08T05:34:14.009Z,63.31
2023-05-08T05:39:16.470Z,63.00
2023-05-08T05:44:18.460Z,63.55
2023-05-08T05:49:20.451Z,63.53
2023-05-08T05:54:22.495Z,64.07
2023-05-08T05:59:24.898Z,64.05
2023-05-08T06:04:27.025Z,63.83
2023-05-08T06:09:29.168Z,63.78
2023-05-08T06:14:31.136Z,64.32
2023-05-08T06:19:33.563Z,64.38
2023-05-08T06:24:36.534Z,64.75
2023-05-08T06:29:38.433Z,64.49
2023-05-08T06:34:40.333Z,65.07
2023-05-08T06:39:42.105Z,64.86
2023-05-08T06:44:43.879Z,64.18
2023-05-08T06:49:46.259Z,64.16
2023-05-08T06:54:48.273Z,63.18
2023-05-08T06:59:50.032Z,63.26
2023-05-08T07:04:51.877Z,62.52
2023-05-08T07:09:53.625Z,61.82
2023-05-08T07:14:56.651Z,62.42
2023-05-08T07:19:59.782Z,62.18
2023-05-08T07:25:01.739Z,62.91
2023-05-08T07:30:04.490Z,62.65
2023-05-08T07:35:10.484Z,62.54
2023-05-08T07:40:12.864Z,62.71
2023-05-08T07:45:14.876Z,62.57
2023-05-08T07:50:17.618Z,62.99
2023-05-08T07:55:20.088Z,62.47
2023-05-08T08:00:22.033Z,62.81
2023-05-08T08:05:23.867Z,61.65
2023-05-08T08:10:26.078Z,61.72
2023-05-08T08:15:31.621Z,61.60
2023-05-08T08:20:33.831Z,60.56
2023-05-08T08:25:35.744Z,59.78
2023-05-08T08:30:38.248Z,60.42
2023-05-08T08:35:40.345Z,59.44
2023-05-08T08:40:42.471Z,60.03
2023-05-08T08:45:44.329Z,60.84
2023-05-08T08:50:51.221Z,60.42
2023-05-08T08:55:56.045Z,60.76
2023-05-08T09:01:00.468Z,61.44
2023-05-08T09:06:03.261Z,61.38
2023-05-08T09:11:05.082Z,61.16
2023-05-08T09:16:07.058Z,61.90
2023-05-08T09:21:09.057Z,61.23
2023-05-08T09:26:10.999Z,60.35
2023-05-08T09:31:12.766Z,60.43
2023-05-08T09:36:26.783Z,60.74
2023-05-08T09:41:29.959Z,59.50
2023-05-08T09:46:34.074Z,59.54
2023-05-08T09:51:35.815Z,59.07
2023-05-08T09:56:39.719Z,57.89
2023-05-08T10:01:42.129Z,56.03
2023-05-08T10:06:44.154Z,55.52
2023-05-08T10:11:53.225Z,53.13
2023-05-08T10:16:55.433Z,52.46
2023-05-08T10:22:01.327Z,51.42
2023-05-08T10:27:07.448Z,49.98
2023-05-08T10:32:10.754Z,49.87
2023-05-08T10:37:13.215Z,50.52
2023-05-08T10:42:15.326Z,50.03
2023-05-08T10:47:26.699Z,51.74
2023-05-08T10:52:54.157Z,50.36
2023-05-08T10:58:06.465Z,51.55
2023-05-08T11:03:19.902Z,51.67
2023-05-08T11:08:27.769Z,51.00
2023-05-08T11:13:34.163Z,52.46
2023-05-08T11:18:48.378Z,53.26
2023-05-08T11:24:00.413Z,53.31
2023-05-08T11:29:02.211Z,53.16
2023-05-08T11:34:07.800Z,54.52
2023-05-08T11:39:17.346Z,55.42
2023-05-08T11:44:21.456Z,56.08
2023-05-08T11:49:29.123Z,56.02
2023-05-08T11:54:32.080Z,55.92
2023-05-08T11:59:37.698Z,55.68
2023-05-08T12:04:48.799Z,55.06
2023-05-08T12:09:50.604Z,55.78
2023-05-08T12:14:52.521Z,55.69
2023-05-08T12:19:59.046Z,55.73
2023-05-08T12:25:02.878Z,55.53
2023-05-08T12:30:09.784Z,56.58
2023-05-08T12:35:14.064Z,56.11
2023-05-08T12:40:34.653Z,56.44
2023-05-08T12:45:42.463Z,57.25
2023-05-08T12:50:47.363Z,56.82
2023-05-08T12:55:57.593Z,56.60
2023-05-08T13:01:10.313Z,56.98
2023-05-08T13:06:22.507Z,56.32
2023-05-08T13:11:33.140Z,55.61
2023-05-08T13:16:51.998Z,53.31
2023-05-08T13:21:54.343Z,52.50
2023-05-08T13:26:56.151Z,52.33
2023-05-08T13:31:58.567Z,51.99
2023-05-08T13:37:00.748Z,52.19
2023-05-08T13:42:02.725Z,52.56
2023-05-08T13:47:04.530Z,52.08
2023-05-08T13:52:06.393Z,51.37
2023-05-08T13:57:10.915Z,51.84
2023-05-08T14:02:12.931Z,51.68
2023-05-08T14:07:16.022Z,51.89
2023-05-08T14:12:17.812Z,51.08
2023-05-08T14:17:19.560Z,51.66
2023-05-08T14:22:21.302Z,51.75
2023-05-08T14:27:23.075Z,52.89
2023-05-08T14:32:24.955Z,52.48
2023-05-08T14:37:26.821Z,52.22
2023-05-08T14:42:28.774Z,52.46
2023-05-08T14:47:32.519Z,52.00
2023-05-08T14:52:34.382Z,50.93
2023-05-08T14:57:36.488Z,51.65
2023-05-08T15:02:39.460Z,51.32
2023-05-08T15:07:42.332Z,51.97
2023-05-08T15:12:44.475Z,52.28
2023-05-08T15:17:46.779Z,52.19
2023-05-08T15:22:49.611Z,51.81
2023-05-08T15:27:52.976Z,52.30
2023-05-08T15:32:55.096Z,52.32
2023-05-08T15:38:00.683Z,52.80
2023-05-08T15:43:04.142Z,52.78
2023-05-08T15:48:06.459Z,53.42
2023-05-08T15:53:08.479Z,53.56
2023-05-08T15:58:10.274Z,54.42
2023-05-08T16:03:12.256Z,54.87
2023-05-08T16:08:14.231Z,55.59
2023-05-08T16:13:16.552Z,54.89
2023-05-08T16:18:18.501Z,55.22
2023-05-08T16:23:20.290Z,55.35
2023-05-08T16:28:22.036Z,55.56
2023-05-08T16:33:23.860Z,55.30
2023-05-08T16:38:28.041Z,55.79
2023-05-08T16:43:29.803Z,55.48
2023-05-08T16:48:31.571Z,55.85
2023-05-08T16:53:33.503Z,55.46
2023-05-08T16:58:35.414Z,55.99
2023-05-08T17:03:37.311Z,57.09
2023-05-08T17:08:39.177Z,57.96
2023-05-08T17:13:43.112Z,57.99
2023-05-08T17:18:44.881Z,58.05
2023-05-08T17:23:47.621Z,58.37
2023-05-08T17:28:49.436Z,58.42
2023-05-08T17:33:51.243Z,58.81
2023-05-08T17:38:53.088Z,58.65
2023-05-08T17:43:55.539Z,58.92
2023-05-08T17:48:57.277Z,59.48
2023-05-08T17:53:59.036Z,59.59
2023-05-08T17:59:00.969Z,59.98
2023-05-08T18:04:03.015Z,60.22
2023-05-08T18:09:05.612Z,60.28
2023-05-08T18:14:07.393Z,60.74
2023-05-08T18:19:09.196Z,61.56
2023-05-08T18:24:10.948Z,61.61
2023-05-08T18:29:15.332Z,62.56
2023-05-08T18:34:17.125Z,63.24
2023-05-08T18:39:18.957Z,63.31
2023-05-08T18:44:20.744Z,63.46
2023-05-08T18:49:22.705Z,63.98
2023-05-08T18:54:26.942Z,63.36
2023-05-08T18:59:29.011Z,64.05
2023-05-08T19:04:30.867Z,64.00
2023-05-08T19:09:34.028Z,64.34
2023-05-08T19:14:35.926Z,63.75
2023-05-08T19:19:37.718Z,64.18
2023-05-08T19:24:39.929Z,64.27
2023-05-08T19:29:41.756Z,64.51
2023-05-08T19:34:43.518Z,64.40
2023-05-08T19:39:45.305Z,64.74
2023-05-08T19:44:47.211Z,64.76
2023-05-08T19:49:49.855Z,64.90
2023-05-08T19:54:51.582Z,64.58
2023-05-08T19:59:53.322Z,64.74
2023-05-08T20:05:21.160Z,65.34
2023-05-08T20:10:16.872Z,65.95
2023-05-08T20:15:18.772Z,66.44
2023-05-08T20:20:20.536Z,66.77
2023-05-08T20:25:22.475Z,66.54
2023-05-08T20:30:24.329Z,66.68
2023-05-08T20:35:26.134Z,66.43
2023-05-08T20:40:28.174Z,66.45
2023-05-08T20:45:30.014Z,66.38
2023-05-08T20:50:31.898Z,66.58
2023-05-08T20:55:33.649Z,66.64
2023-05-08T21:00:35.754Z,66.33
2023-05-08T21:05:37.487Z,66.27
2023-05-08T21:10:39.678Z,66.25
2023-05-08T21:15:41.450Z,66.31
2023-05-08T21:20:50.016Z,66.77
2023-05-08T21:25:53.111Z,66.74
2023-05-08T21:30:54.959Z,66.45
2023-05-08T21:35:56.758Z,66.28
2023-05-08T21:41:06.422Z,65.93
2023-05-08T21:46:09.276Z,66.44
2023-05-08T21:51:11.364Z,66.25
2023-05-08T21:56:13.101Z,66.23
2023-05-08T22:01:14.969Z,66.02
2023-05-08T22:06:16.804Z,66.43
2023-05-08T22:11:18.620Z,66.26
2023-05-08T22:16:20.424Z,66.72
2023-05-08T22:21:22.320Z,66.88
2023-05-08T22:26:24.195Z,66.73
2023-05-08T22:31:26.021Z,67.12
2023-05-08T22:36:28.020Z,66.93
2023-05-08T22:41:30.557Z,67.16
2023-05-08T22:46:33.922Z,66.88
2023-05-08T22:51:36.189Z,67.00
2023-05-08T22:56:38.339Z,66.83
2023-05-08T23:01:40.363Z,67.16
2023-05-08T23:06:42.269Z,67.17
2023-05-08T23:11:44.166Z,67.25
2023-05-08T23:16:46.266Z,67.24
2023-05-08T23:21:51.033Z,66.87
2023-05-08T23:26:53.278Z,66.70
2023-05-08T23:31:55.375Z,66.79
2023-05-08T23:36:57.212Z,66.92
2023-05-08T23:41:58.983Z,66.68
2023-05-08T23:47:01.330Z,66.64
2023-05-08T23:52:03.085Z,66.53
2023-05-08T23:57:05.825Z,67.02
